Flight Track Log - Related Links

Times and Time Zones

All times are in EDT time to prevent confusion due to time zone crossing. See the UAL3756 flight status page for this flight to view local times or setup timezone preferences in your user account.

Time Position Orientation Groundspeed Altitude Reporting Facility
EDT Latitude Longitude Course Direction KTS MPH feet Rate Location/Type
Thu 07:50:53 PM 41.9333 -87.9167 180° South 158 182 2,100  Level Chicago TRACON
Thu 07:51:53 PM 41.8833 -87.9000 166° South 194 223 3,800 1,684 Climbing Chicago TRACON
Thu 07:52:47 PM 41.8333 -87.8667 154° Southeast 272 313 5,300 2,504 Climbing Chicago TRACON
Thu 07:54:12 PM 41.7389 -87.7964 151° Southeast 286 329 9,600 2,857 Climbing Chicago Center
Thu 07:55:00 PM 41.5129 -87.3639 168° South  Level Estimated
Thu 07:55:14 PM 41.6656 -87.7447 152° Southeast 296 341 12,300  Level Chicago Center
Thu 07:56:00 PM 41.4017 -87.3642 180° South  Level FlightAware Approximate
Thu 07:56:16 PM 41.5889 -87.6900 152° Southeast 308 354 14,800  Level Chicago Center
Thu 07:57:18 PM 41.5056 -87.6297 152° Southeast 332 382 16,200 1,839 Climbing Chicago Center
Thu 07:58:20 PM 41.3908 -87.5664 157° South 367 422 18,600 2,000 Climbing Chicago Center
Thu 07:59:27 PM 41.2881 -87.5483 172° South 371 427 20,500 1,628 Climbing Chicago Center
Thu 08:00:29 PM 41.1833 -87.5294 172° South 377 434 22,100 1,548 Climbing Chicago Center
Thu 08:01:31 PM 41.0761 -87.5003 168° South 390 449 23,700 1,694 Climbing Chicago Center
Thu 08:02:33 PM 40.9461 -87.4642 168° South 399 459 25,600 1,694 Climbing Chicago Center
Thu 08:03:35 PM 40.8375 -87.4347 168° South 399 459 27,200 1,306 Climbing Chicago Center
Thu 08:04:37 PM 40.7256 -87.4053 169° South 407 468 28,300 1,016 Climbing Chicago Center
Thu 08:05:39 PM 40.6097 -87.3750 169° South 419 482 29,300 871 Climbing Chicago Center
Thu 08:06:41 PM 40.4908 -87.3428 168° South 432 497 30,100 823 Climbing Chicago Center
Thu 08:07:43 PM 40.3819 -87.2700 153° Southeast 455 524 31,000 1,161 Climbing Chicago Center
Thu 08:08:45 PM 40.2592 -87.1556 145° Southeast 457 526 32,500 1,161 Climbing Chicago Center
Thu 08:09:47 PM 40.1569 -87.0603 145° Southeast 453 521 33,400 792 Climbing Chicago Center
Thu 08:10:31 PM 40.0728 -86.9817 144° Southeast 457 526 33,900 679 Climbing Indianapolis Center
Thu 08:11:33 PM 39.9667 -86.8858 145° Southeast 466 536 34,600 774 Climbing Indianapolis Center
Thu 08:12:35 PM 39.8561 -86.7953 148° Southeast 472 543 35,500 677 Climbing Indianapolis Center
Thu 08:13:37 PM 39.7461 -86.7036 147° Southeast 475 547 36,000 242 Climbing Indianapolis Center
Thu 08:14:39 PM 39.6636 -86.5650 128° Southeast 493 567 36,000  Level Indianapolis Center
Thu 08:15:40 PM 39.5825 -86.3822 120° Southeast 499 574 36,000  Level Indianapolis Center
Thu 08:16:42 PM 39.5158 -86.2272 119° Southeast 504 580 36,000  Level Indianapolis Center
Thu 08:17:44 PM 39.4481 -86.0717 119° Southeast 504 580 36,000 290 Level Indianapolis Center
Thu 08:18:46 PM 39.3797 -85.9167 120° Southeast 502 578 36,600 484 Climbing Indianapolis Center
Thu 08:19:48 PM 39.2972 -85.7322 120° Southeast 497 572 37,000 194 Climbing Indianapolis Center
Thu 08:20:50 PM 39.2283 -85.5778 120° Southeast 500 575 37,000  Level Indianapolis Center
Thu 08:21:52 PM 39.1358 -85.4456 132° Southeast 501 577 37,000  Level Indianapolis Center
Thu 08:22:54 PM 39.0406 -85.3208 135° Southeast 492 566 37,000  Level Indianapolis Center
Thu 08:23:56 PM 38.9436 -85.1972 135° Southeast 492 566 37,000  Level Indianapolis Center
Thu 08:24:58 PM 38.8469 -85.0725 135° Southeast 495 570 37,000  Level Indianapolis Center
Thu 08:26:00 PM 38.7319 -84.9247 135° Southeast 490 564 37,000  Level Indianapolis Center
Thu 08:27:02 PM 38.6356 -84.8019 135° Southeast 486 559 37,000  Level Indianapolis Center
Thu 08:28:04 PM 38.5297 -84.6703 136° Southeast 492 566 37,000  Level Indianapolis Center
Thu 08:29:06 PM 38.4331 -84.5447 134° Southeast 495 570 37,000  Level Indianapolis Center
Thu 08:30:08 PM 38.3372 -84.4206 135° Southeast 492 566 37,000  Level Indianapolis Center
Thu 08:31:10 PM 38.2381 -84.2978 136° Southeast 492 566 37,000 -145 Level Indianapolis Center
Thu 08:32:12 PM 38.1375 -84.1756 136° Southeast 497 572 36,700 -823 Descending Indianapolis Center
Thu 08:33:14 PM 38.0378 -84.0525 136° Southeast 499 574 35,300 -1,742 Descending Indianapolis Center
Thu 08:34:16 PM 37.9192 -83.9092 136° Southeast 503 579 33,100 -1,113 Descending Indianapolis Center
Thu 08:35:18 PM 37.8242 -83.7872 135° Southeast 488 562 33,000 -48 Descending Indianapolis Center
Thu 08:36:20 PM 37.7286 -83.6700 136° Southeast 480 552 33,000  Level Indianapolis Center
Thu 08:37:22 PM 37.6311 -83.5525 136° Southeast 483 556 33,000  Level Indianapolis Center
Thu 08:38:24 PM 37.5339 -83.4344 136° Southeast 484 557 33,000  Level Indianapolis Center
Thu 08:39:26 PM 37.4211 -83.2975 136° Southeast 482 555 33,000  Level Indianapolis Center
Thu 08:40:28 PM 37.3236 -83.1800 136° Southeast 484 557 33,000 -387 Level Indianapolis Center
Thu 08:41:30 PM 37.2258 -83.0622 136° Southeast 484 557 32,200 -919 Descending Indianapolis Center
Thu 08:42:32 PM 37.1267 -82.9431 136° Southeast 483 556 31,100 -1,016 Descending Indianapolis Center
Thu 08:43:34 PM 37.0303 -82.8264 136° Southeast 481 554 30,100 -968 Descending Indianapolis Center
Thu 08:44:36 PM 36.9264 -82.7044 137° Southeast 495 570 29,100 -532 Descending Indianapolis Center
Thu 08:45:38 PM 36.8203 -82.6000 142° Southeast 487 560 29,000 -48 Descending Indianapolis Center
Thu 08:46:40 PM 36.6947 -82.5611 166° South 463 533 29,000 -297 Level Indianapolis Center
Thu 08:47:19 PM 36.6164 -82.5361 166° South 447 514 28,500 -909 Descending Atlanta Center
Thu 08:48:19 PM 36.5153 -82.4606 149° Southeast 442 509 27,500 -1,000 Descending Atlanta Center
Thu 08:49:19 PM 36.4161 -82.3669 143° Southeast 439 505 26,500 -1,000 Descending Atlanta Center
Thu 08:50:19 PM 36.3189 -82.2761 143° Southeast 439 505 25,500 -1,200 Descending Atlanta Center
Thu 08:51:19 PM 36.2278 -82.1856 141° Southeast 430 495 24,100 -1,800 Descending Atlanta Center
Thu 08:52:19 PM 36.1367 -82.0975 142° Southeast 425 489 21,900 -2,250 Descending Atlanta Center
Thu 08:53:19 PM 36.0456 -82.0072 141° Southeast 425 489 19,600 -2,100 Descending Atlanta Center
Thu 08:54:19 PM 35.9503 -81.9147 142° Southeast 418 481 17,700 -1,800 Descending Atlanta Center
Thu 08:55:19 PM 35.8694 -81.8375 142° Southeast 387 445 16,000 -1,600 Descending Atlanta Center
Thu 08:56:19 PM 35.7953 -81.7731 145° Southeast 353 406 14,500 -1,450 Descending Atlanta Center
Thu 08:57:19 PM 35.7275 -81.7058 141° Southeast 312 359 13,100 -1,050 Descending Atlanta Center
Thu 08:58:19 PM 35.6572 -81.6389 142° Southeast 319 367 12,400 -806 Descending Atlanta Center
Thu 08:58:26 PM 35.6486 -81.6289 137° Southeast 314 361 12,200 -1,300 Descending Atlanta Center
Thu 08:59:19 PM 35.5953 -81.5692 138° Southeast 319 367 11,100 -1,222 Descending Atlanta Center
Thu 08:59:20 PM 35.5933 -81.5692 180° South 311 358 11,100 -300 Level Atlanta Center
Thu 09:00:19 PM 35.5417 -81.4889 128° Southeast 309 356 10,800 -393 Descending Atlanta Center
Thu 09:00:21 PM 35.5394 -81.4814 110° East 301 346 10,700 -1,053 Descending Atlanta Center
Thu 09:01:16 PM 35.5333 -81.3950 95° East 316 364 9,800 -828 Descending Atlanta Center
Thu 09:01:19 PM 35.5333 -81.3950 95° East 288 331 9,900 -667 Climbing Atlanta Center
Thu 09:02:19 PM 35.5647 -81.3019 67° East 276 318 9,100 -750 Descending Atlanta Center
Thu 09:02:23 PM 35.5625 -81.2969 119° Southeast 290 334 9,100 -100 Level Atlanta Center
Thu 09:03:19 PM 35.5689 -81.2100 85° East 276 318 9,000 -98 Descending Atlanta Center
Thu 09:03:24 PM 35.5689 -81.2072 90° East 252 290 9,000 -250 Level Atlanta Center
Thu 09:04:31 PM 35.5644 -81.1106 93° East 247 284 8,700 -678 Descending Atlanta Center
Thu 09:05:19 PM 35.5400 -81.0475 115° Southeast 245 282 7,700 -1,309 Descending Atlanta Center
Thu 09:05:26 PM 35.5356 -81.0400 126° Southeast 244 281 7,500 -971 Descending Atlanta Center
Thu 09:06:27 PM 35.4989 -80.9878 131° Southeast 212 244 6,600 -1,190 Descending Atlanta Center
Thu 09:07:22 PM 35.4483 -80.9719 166° South 195 224 5,200 -1,328 Descending Atlanta Center
Thu 09:08:29 PM 35.3961 -80.9711 179° South 167 192 3,900 -1,031 Descending Atlanta Center
Thu 09:09:30 PM 35.3481 -80.9653 174° South 170 196 3,000 -843 Descending Atlanta Center
Thu 09:10:30 PM 35.3000 -80.9622 177° South 159 183 2,200 -678 Descending Atlanta Center
Thu 09:11:25 PM 35.2686 -80.9581 174° South 129 148 1,700 -621 Descending Atlanta Center
Thu 09:12:26 PM 35.2311 -80.9569 179° South 127 146 1,000 -689 Descending Atlanta Center

Login

Don't have an account? Register now (free) for customized features, flight alerts, and more!